createdAt,value
2023-03-04T00:01:27.268Z,3.20
2023-03-04T00:03:53.924Z,3.38
2023-03-04T00:06:20.706Z,3.30
2023-03-04T00:08:47.399Z,2.63
2023-03-04T00:11:14.085Z,3.05
2023-03-04T00:13:40.845Z,3.03
2023-03-04T00:16:07.600Z,3.00
2023-03-04T00:18:34.476Z,2.75
2023-03-04T00:21:01.516Z,3.30
2023-03-04T00:23:28.462Z,2.75
2023-03-04T00:25:55.235Z,2.72
2023-03-04T00:28:22.106Z,2.63
2023-03-04T00:30:48.748Z,3.13
2023-03-04T00:33:15.971Z,2.45
2023-03-04T00:35:42.875Z,2.85
2023-03-04T00:38:09.906Z,2.35
2023-03-04T00:40:36.686Z,2.47
2023-03-04T00:43:03.489Z,1.92
2023-03-04T00:45:30.182Z,2.58
2023-03-04T00:47:56.953Z,2.38
2023-03-04T00:50:23.648Z,2.05
2023-03-04T00:52:51.139Z,2.30
2023-03-04T00:55:17.879Z,2.30
2023-03-04T00:57:44.579Z,2.40
2023-03-04T01:00:11.957Z,2.60
2023-03-04T01:02:38.786Z,2.30
2023-03-04T01:05:06.330Z,2.30
2023-03-04T01:07:33.983Z,2.30
2023-03-04T01:10:00.880Z,2.40
2023-03-04T01:12:28.343Z,2.03
2023-03-04T01:14:55.097Z,2.20
2023-03-04T01:17:21.877Z,1.75
2023-03-04T01:19:48.712Z,1.90
2023-03-04T01:22:16.717Z,2.38
2023-03-04T01:24:43.482Z,2.85
2023-03-04T01:27:10.236Z,2.75
2023-03-04T01:29:36.958Z,2.00
2023-03-04T01:32:04.106Z,2.30
2023-03-04T01:34:30.927Z,1.92
2023-03-04T01:36:57.777Z,1.80
2023-03-04T01:39:24.485Z,1.65
2023-03-04T01:41:51.362Z,2.03
2023-03-04T01:44:18.568Z,1.60
2023-03-04T01:46:50.250Z,1.92
2023-03-04T01:49:17.385Z,1.73
2023-03-04T01:51:49.140Z,1.95
2023-03-04T01:54:17.067Z,1.98
2023-03-04T01:56:46.713Z,1.65
2023-03-04T01:59:16.272Z,1.85
2023-03-04T02:01:48.316Z,2.22
2023-03-04T02:04:17.452Z,1.70
2023-03-04T02:06:45.963Z,1.65
2023-03-04T02:09:13.002Z,1.75
2023-03-04T02:11:40.782Z,2.20
2023-03-04T02:14:08.430Z,1.65
2023-03-04T02:16:35.204Z,1.83
2023-03-04T02:19:02.428Z,1.50
2023-03-04T02:21:33.915Z,1.67
2023-03-04T02:24:27.310Z,2.08
2023-03-04T02:26:54.006Z,1.48
2023-03-04T02:29:20.887Z,1.67
2023-03-04T02:31:50.700Z,1.52
2023-03-04T02:34:27.897Z,2.00
2023-03-04T02:36:56.115Z,1.98
2023-03-04T02:39:34.043Z,1.70
2023-03-04T02:42:02.537Z,1.67
2023-03-04T02:44:31.844Z,1.98
2023-03-04T02:46:59.417Z,1.40
2023-03-04T02:49:28.144Z,1.88
2023-03-04T02:52:01.940Z,1.67
2023-03-04T02:54:29.653Z,1.55
2023-03-04T02:57:03.175Z,1.80
2023-03-04T02:59:30.297Z,2.00
2023-03-04T03:01:57.689Z,1.80
2023-03-04T03:04:25.368Z,1.35
2023-03-04T03:06:52.122Z,1.55
2023-03-04T03:09:19.849Z,1.67
2023-03-04T03:11:46.651Z,1.73
2023-03-04T03:14:13.458Z,1.85
2023-03-04T03:16:40.241Z,1.83
2023-03-04T03:19:07.309Z,1.75
2023-03-04T03:21:34.107Z,1.70
2023-03-04T03:24:00.779Z,1.63
2023-03-04T03:26:27.753Z,1.60
2023-03-04T03:28:54.613Z,1.52
2023-03-04T03:31:21.374Z,1.52
2023-03-04T03:33:48.236Z,1.90
2023-03-04T03:36:14.955Z,2.10
2023-03-04T03:38:41.673Z,1.45
2023-03-04T03:41:08.402Z,1.55
2023-03-04T03:43:35.172Z,1.30
2023-03-04T03:46:01.930Z,1.60
2023-03-04T03:48:28.732Z,1.80
2023-03-04T03:50:55.404Z,1.42
2023-03-04T03:53:22.170Z,1.65
2023-03-04T03:55:48.964Z,1.33
2023-03-04T03:58:15.664Z,1.30
2023-03-04T04:00:42.425Z,1.88
2023-03-04T04:03:11.054Z,1.60
2023-03-04T04:05:37.732Z,1.45
2023-03-04T04:08:04.885Z,1.52
2023-03-04T04:10:31.710Z,1.83
2023-03-04T04:12:58.360Z,1.80
2023-03-04T04:15:25.027Z,1.45
2023-03-04T04:17:51.763Z,1.30
2023-03-04T04:20:18.510Z,1.50
2023-03-04T04:22:45.232Z,1.30
2023-03-04T04:25:11.934Z,1.50
2023-03-04T04:27:39.382Z,1.50
2023-03-04T04:30:06.835Z,1.13
2023-03-04T04:32:33.649Z,1.30
2023-03-04T04:35:00.335Z,1.48
2023-03-04T04:37:27.058Z,1.50
2023-03-04T04:39:55.485Z,1.23
2023-03-04T04:42:22.933Z,1.50
2023-03-04T04:44:50.093Z,1.30
2023-03-04T04:47:16.928Z,1.30
2023-03-04T04:49:45.932Z,1.50
2023-03-04T04:52:12.576Z,1.08
2023-03-04T04:54:39.579Z,1.42
2023-03-04T04:57:06.413Z,1.83
2023-03-04T04:59:36.048Z,1.33
2023-03-04T05:02:03.028Z,1.38
2023-03-04T05:04:29.730Z,1.40
2023-03-04T05:06:56.751Z,1.40
2023-03-04T05:09:23.502Z,1.20
2023-03-04T05:11:50.582Z,1.30
2023-03-04T05:14:17.274Z,1.20
2023-03-04T05:16:44.198Z,1.30
2023-03-04T05:19:11.365Z,1.30
2023-03-04T05:21:38.238Z,1.20
2023-03-04T05:24:05.268Z,1.20
2023-03-04T05:26:31.981Z,1.20
2023-03-04T05:28:58.660Z,1.33
2023-03-04T05:31:25.570Z,1.60
2023-03-04T05:33:52.364Z,1.40
2023-03-04T05:36:19.404Z,1.45
2023-03-04T05:38:46.130Z,1.35
2023-03-04T05:41:12.826Z,1.20
2023-03-04T05:43:42.884Z,1.25
2023-03-04T05:46:14.486Z,1.50
2023-03-04T05:51:07.990Z,1.23
2023-03-04T05:53:36.943Z,1.00
2023-03-04T05:56:09.165Z,1.02
2023-03-04T05:58:35.867Z,1.33
2023-03-04T06:01:03.641Z,1.10
2023-03-04T06:03:30.523Z,1.30
2023-03-04T06:05:57.964Z,1.33
2023-03-04T06:08:24.888Z,1.20
2023-03-04T06:10:56.371Z,1.40
2023-03-04T06:13:23.519Z,1.20
2023-03-04T06:15:57.559Z,1.25
2023-03-04T06:18:25.766Z,1.40
2023-03-04T06:21:03.084Z,1.27
2023-03-04T06:23:31.142Z,1.20
2023-03-04T06:25:59.388Z,1.20
2023-03-04T06:28:26.761Z,1.20
2023-03-04T06:30:54.469Z,1.35
2023-03-04T06:33:21.464Z,1.27
2023-03-04T06:35:48.635Z,1.55
2023-03-04T06:38:15.369Z,1.38
2023-03-04T06:40:42.013Z,1.05
2023-03-04T06:43:08.843Z,1.35
2023-03-04T06:45:35.546Z,1.23
2023-03-04T06:48:02.512Z,1.33
2023-03-04T06:50:29.288Z,1.42
2023-03-04T06:52:57.802Z,1.15
2023-03-04T06:55:24.904Z,1.10
2023-03-04T06:57:51.741Z,1.10
2023-03-04T07:00:19.541Z,1.02
2023-03-04T07:02:46.252Z,1.38
2023-03-04T07:05:13.064Z,1.20
2023-03-04T07:07:39.790Z,1.08
2023-03-04T07:10:06.862Z,1.08
2023-03-04T07:12:33.664Z,1.40
2023-03-04T07:15:00.452Z,0.93
2023-03-04T07:17:27.186Z,1.05
2023-03-04T07:19:53.922Z,1.40
2023-03-04T07:22:20.578Z,1.40
2023-03-04T07:24:47.296Z,1.13
2023-03-04T07:27:14.107Z,1.33
2023-03-04T07:29:40.787Z,1.00
2023-03-04T07:32:09.142Z,1.20
2023-03-04T07:34:35.946Z,1.38
2023-03-04T07:37:02.922Z,1.23
2023-03-04T07:39:29.585Z,1.30
2023-03-04T07:41:56.321Z,1.10
2023-03-04T07:44:23.005Z,0.90
2023-03-04T07:46:49.705Z,1.40
2023-03-04T07:49:16.459Z,1.00
2023-03-04T07:51:43.216Z,1.52
2023-03-04T07:54:10.502Z,1.00
2023-03-04T07:56:37.298Z,1.02
2023-03-04T07:59:03.968Z,1.02
2023-03-04T08:01:37.426Z,1.23
2023-03-04T08:04:06.109Z,1.15
2023-03-04T08:06:33.610Z,1.15
2023-03-04T08:09:02.851Z,1.30
2023-03-04T08:11:30.648Z,1.13
2023-03-04T08:13:58.089Z,1.13
2023-03-04T08:16:25.477Z,1.25
2023-03-04T08:18:54.909Z,1.45
2023-03-04T08:21:23.619Z,0.95
2023-03-04T08:23:51.354Z,0.93
2023-03-04T08:26:27.456Z,1.27
2023-03-04T08:28:56.471Z,0.95
2023-03-04T08:31:23.666Z,1.25
2023-03-04T08:33:51.235Z,1.00
2023-03-04T08:36:17.973Z,1.30
2023-03-04T08:38:44.656Z,1.00
2023-03-04T08:41:11.469Z,1.33
2023-03-04T08:43:38.290Z,1.23
2023-03-04T08:46:06.338Z,1.40
2023-03-04T08:48:33.799Z,1.10
2023-03-04T08:51:01.034Z,1.48
2023-03-04T08:53:27.898Z,1.23
2023-03-04T08:55:54.605Z,1.13
2023-03-04T08:58:21.462Z,0.80
2023-03-04T09:00:51.507Z,0.90
2023-03-04T09:03:19.782Z,1.25
2023-03-04T09:05:48.004Z,0.90
2023-03-04T09:08:15.760Z,1.10
2023-03-04T09:10:42.609Z,1.02
2023-03-04T09:13:11.402Z,1.08
2023-03-04T09:15:43.782Z,1.13
2023-03-04T09:18:10.726Z,1.13
2023-03-04T09:20:37.461Z,1.48
2023-03-04T09:23:04.358Z,1.00
2023-03-04T09:25:31.147Z,0.93
2023-03-04T09:27:57.873Z,0.85
2023-03-04T09:30:24.712Z,0.90
2023-03-04T09:32:51.472Z,1.10
2023-03-04T09:35:18.300Z,0.98
2023-03-04T09:37:46.834Z,1.05
2023-03-04T09:40:20.834Z,1.20
2023-03-04T09:42:51.395Z,1.08
2023-03-04T09:45:21.788Z,1.00
2023-03-04T09:47:54.421Z,0.68
2023-03-04T09:50:22.362Z,1.10
2023-03-04T09:53:22.772Z,1.27
2023-03-04T09:55:53.282Z,0.93
2023-03-04T09:59:03.997Z,1.20
2023-03-04T10:01:39.180Z,1.33
2023-03-04T10:04:14.168Z,1.00
2023-03-04T10:06:42.452Z,0.90
2023-03-04T10:09:17.761Z,1.10
2023-03-04T10:12:25.694Z,1.00
2023-03-04T10:14:53.780Z,1.20
2023-03-04T10:17:46.975Z,0.73
2023-03-04T10:20:23.912Z,0.93
2023-03-04T10:22:51.901Z,1.20
2023-03-04T10:25:28.287Z,0.90
2023-03-04T10:28:17.648Z,0.80
2023-03-04T10:31:09.196Z,1.80
2023-03-04T10:33:38.441Z,1.10
2023-03-04T10:36:32.548Z,1.15
2023-03-04T10:39:03.727Z,0.93
2023-03-04T10:41:31.705Z,0.90
2023-03-04T10:44:14.550Z,0.82
2023-03-04T10:46:46.913Z,1.10
2023-03-04T10:49:16.281Z,1.05
2023-03-04T10:51:49.217Z,0.90
2023-03-04T10:54:33.792Z,0.85
2023-03-04T10:57:05.115Z,1.15
2023-03-04T10:59:40.667Z,1.10
2023-03-04T11:02:30.571Z,1.10
2023-03-04T11:05:21.535Z,1.30
2023-03-04T11:07:58.514Z,1.20
2023-03-04T11:10:40.069Z,1.48
2023-03-04T11:13:25.494Z,1.17
2023-03-04T11:15:59.508Z,0.90
2023-03-04T11:18:46.727Z,1.27
2023-03-04T11:21:25.920Z,1.23
2023-03-04T11:24:03.511Z,1.67
2023-03-04T11:26:55.181Z,1.63
2023-03-04T11:30:00.191Z,1.10
2023-03-04T11:32:44.041Z,1.52
2023-03-04T11:35:28.533Z,1.20
2023-03-04T11:38:16.696Z,1.10
2023-03-04T11:41:16.366Z,1.60
2023-03-04T11:43:45.657Z,1.27
2023-03-04T11:46:42.404Z,1.60
2023-03-04T11:49:30.112Z,1.50
2023-03-04T11:52:02.980Z,1.10
2023-03-04T11:54:42.661Z,1.17
2023-03-04T11:57:20.861Z,1.17
2023-03-04T12:00:25.855Z,1.00
2023-03-04T12:03:26.432Z,1.23
2023-03-04T12:06:25.429Z,1.00
2023-03-04T12:09:03.110Z,1.20
2023-03-04T12:11:57.558Z,1.00
2023-03-04T12:14:32.660Z,1.00
2023-03-04T12:17:02.157Z,1.10
2023-03-04T12:20:04.592Z,1.13
2023-03-04T12:22:47.368Z,1.13
2023-03-04T12:25:42.172Z,1.08
2023-03-04T12:28:36.424Z,1.25
2023-03-04T12:31:21.083Z,1.10
2023-03-04T12:34:19.366Z,1.40
2023-03-04T12:37:09.073Z,1.30
2023-03-04T12:40:16.078Z,1.10
2023-03-04T12:43:00.589Z,1.08
2023-03-04T12:45:39.526Z,1.00
2023-03-04T12:48:31.075Z,1.05
2023-03-04T12:51:07.330Z,1.00
2023-03-04T12:53:38.186Z,0.95
2023-03-04T12:56:07.465Z,0.82
2023-03-04T12:58:36.993Z,0.80
2023-03-04T13:01:21.778Z,1.25
2023-03-04T13:03:54.785Z,1.00
2023-03-04T13:06:59.664Z,1.08
2023-03-04T13:09:33.911Z,1.17
2023-03-04T13:12:22.733Z,1.08
2023-03-04T13:15:12.545Z,1.30
2023-03-04T13:18:01.460Z,1.30
2023-03-04T13:20:31.072Z,1.20
2023-03-04T13:23:25.916Z,1.40
2023-03-04T13:25:55.571Z,1.50
2023-03-04T13:28:30.824Z,1.23
2023-03-04T13:30:59.386Z,1.13
2023-03-04T13:33:26.064Z,1.17
2023-03-04T13:36:02.293Z,1.67
2023-03-04T13:38:30.804Z,1.20
2023-03-04T13:41:19.103Z,1.50
2023-03-04T13:43:52.020Z,1.85
2023-03-04T13:46:18.894Z,1.50
2023-03-04T13:48:51.475Z,1.95
2023-03-04T13:51:43.886Z,1.70
2023-03-04T13:54:19.791Z,1.92
2023-03-04T13:56:47.741Z,1.50
2023-03-04T13:59:42.054Z,1.50
2023-03-04T14:02:22.565Z,1.58
2023-03-04T14:04:59.612Z,1.48
2023-03-04T14:07:32.432Z,1.60
2023-03-04T14:10:05.246Z,1.27
2023-03-04T14:12:37.714Z,1.42
2023-03-04T14:15:14.729Z,1.55
2023-03-04T14:17:47.181Z,1.38
2023-03-04T14:20:27.736Z,1.90
2023-03-04T14:22:55.198Z,1.65
2023-03-04T14:25:23.816Z,1.40
2023-03-04T14:27:51.127Z,1.80
2023-03-04T14:30:41.732Z,1.50
2023-03-04T14:33:19.408Z,1.85
2023-03-04T14:35:48.468Z,1.60
2023-03-04T14:38:24.481Z,1.75
2023-03-04T14:41:09.488Z,1.50
2023-03-04T14:43:48.875Z,1.40
2023-03-04T14:46:18.889Z,1.30
2023-03-04T14:48:50.857Z,1.80
2023-03-04T14:51:31.473Z,1.52
2023-03-04T14:53:58.590Z,1.50
2023-03-04T14:56:31.229Z,1.50
2023-03-04T15:01:36.899Z,1.92
2023-03-04T15:04:11.362Z,1.50
2023-03-04T15:06:50.360Z,1.83
2023-03-04T15:09:25.402Z,2.00
2023-03-04T15:11:56.511Z,1.60
2023-03-04T15:14:46.850Z,1.65
2023-03-04T15:17:30.515Z,1.75
2023-03-04T15:20:01.951Z,1.30
2023-03-04T15:22:29.421Z,1.58
2023-03-04T15:24:56.094Z,2.13
2023-03-04T15:27:24.791Z,1.33
2023-03-04T15:29:56.170Z,1.67
2023-03-04T15:32:23.796Z,1.67
2023-03-04T15:34:50.845Z,1.42
2023-03-04T15:37:25.403Z,2.15
2023-03-04T15:39:52.738Z,1.38
2023-03-04T15:42:19.613Z,1.45
2023-03-04T15:44:46.659Z,1.20
2023-03-04T15:47:14.059Z,1.13
2023-03-04T15:49:42.491Z,1.20
2023-03-04T15:52:20.871Z,1.20
2023-03-04T15:54:49.239Z,1.45
2023-03-04T15:57:23.025Z,1.50
2023-03-04T15:59:50.239Z,1.42
2023-03-04T16:02:25.182Z,1.75
2023-03-04T16:04:51.830Z,1.42
2023-03-04T16:07:22.419Z,1.50
2023-03-04T16:09:57.189Z,1.33
2023-03-04T16:12:26.728Z,1.10
2023-03-04T16:14:53.496Z,1.38
2023-03-04T16:17:20.169Z,1.40
2023-03-04T16:19:47.204Z,1.25
2023-03-04T16:22:15.834Z,1.20
2023-03-04T16:24:42.714Z,1.33
2023-03-04T16:27:15.161Z,1.20
2023-03-04T16:29:42.119Z,1.20
2023-03-04T16:32:09.452Z,1.27
2023-03-04T16:34:36.621Z,1.70
2023-03-04T16:37:07.750Z,1.08
2023-03-04T16:39:34.929Z,0.95
2023-03-04T16:42:02.596Z,1.27
2023-03-04T16:44:29.331Z,1.45
2023-03-04T16:46:56.025Z,1.00
2023-03-04T16:49:22.731Z,1.30
2023-03-04T16:51:51.090Z,1.40
2023-03-04T16:54:27.784Z,1.13
2023-03-04T16:56:54.738Z,1.25
2023-03-04T16:59:21.511Z,1.30
2023-03-04T17:01:49.009Z,1.20
2023-03-04T17:04:15.802Z,1.50
2023-03-04T17:06:42.508Z,1.48
2023-03-04T17:09:09.458Z,1.15
2023-03-04T17:11:36.517Z,1.20
2023-03-04T17:14:03.264Z,1.30
2023-03-04T17:16:30.071Z,1.40
2023-03-04T17:18:56.917Z,1.33
2023-03-04T17:21:26.382Z,1.48
2023-03-04T17:23:54.492Z,1.40
2023-03-04T17:26:22.582Z,1.67
2023-03-04T17:28:50.748Z,1.52
2023-03-04T17:31:20.174Z,1.35
2023-03-04T17:33:48.049Z,1.23
2023-03-04T17:36:16.932Z,1.38
2023-03-04T17:38:44.236Z,1.83
2023-03-04T17:41:16.001Z,1.63
2023-03-04T17:43:44.693Z,1.83
2023-03-04T17:46:13.777Z,1.42
2023-03-04T17:48:41.132Z,2.00
2023-03-04T17:51:08.562Z,1.60
2023-03-04T17:53:35.375Z,1.67
2023-03-04T17:56:05.169Z,1.77
2023-03-04T17:58:34.729Z,1.63
2023-03-04T18:01:10.925Z,1.67
2023-03-04T18:03:37.710Z,2.00
2023-03-04T18:06:04.713Z,1.58
2023-03-04T18:08:31.453Z,2.13
2023-03-04T18:10:58.296Z,1.67
2023-03-04T18:13:25.090Z,2.13
2023-03-04T18:15:51.794Z,1.80
2023-03-04T18:18:18.590Z,2.22
2023-03-04T18:20:45.251Z,2.70
2023-03-04T18:23:11.959Z,2.20
2023-03-04T18:25:39.557Z,2.25
2023-03-04T18:28:06.285Z,2.40
2023-03-04T18:30:33.056Z,2.22
2023-03-04T18:33:00.158Z,1.98
2023-03-04T18:35:26.974Z,2.40
2023-03-04T18:37:53.885Z,2.50
2023-03-04T18:40:21.195Z,2.55
2023-03-04T18:42:47.897Z,2.53
2023-03-04T18:45:16.171Z,3.83
2023-03-04T18:47:46.649Z,4.93
2023-03-04T18:50:13.746Z,6.47
2023-03-04T18:52:40.502Z,9.55
2023-03-04T18:55:07.501Z,8.68
2023-03-04T18:57:34.383Z,9.73
2023-03-04T19:00:04.556Z,9.88
2023-03-04T19:02:52.244Z,9.30
2023-03-04T19:05:27.374Z,9.07
2023-03-04T19:07:54.850Z,8.80
2023-03-04T19:10:21.960Z,8.70
2023-03-04T19:12:48.883Z,7.07
2023-03-04T19:15:16.118Z,8.70
2023-03-04T19:17:45.273Z,7.63
2023-03-04T19:20:14.018Z,7.07
2023-03-04T19:22:40.871Z,6.88
2023-03-04T19:25:08.464Z,7.32
2023-03-04T19:27:35.216Z,7.60
2023-03-04T19:30:02.108Z,7.65
2023-03-04T19:32:28.858Z,6.80
2023-03-04T19:34:55.897Z,7.32
2023-03-04T19:37:22.605Z,6.18
2023-03-04T19:39:49.751Z,6.45
2023-03-04T19:42:16.883Z,5.95
2023-03-04T19:44:45.092Z,6.78
2023-03-04T19:47:12.074Z,6.22
2023-03-04T19:49:39.063Z,6.55
2023-03-04T19:52:06.018Z,5.30
2023-03-04T19:54:33.708Z,5.57
2023-03-04T19:57:00.482Z,5.20
2023-03-04T19:59:27.210Z,5.85
2023-03-04T20:01:54.215Z,5.78
2023-03-04T20:04:21.857Z,5.55
2023-03-04T20:06:50.859Z,5.95
2023-03-04T20:09:18.694Z,5.57
2023-03-04T20:11:57.707Z,5.53
2023-03-04T20:14:26.573Z,4.97
2023-03-04T20:16:53.395Z,5.25
2023-03-04T20:19:20.135Z,4.90
2023-03-04T20:21:46.772Z,5.38
2023-03-04T20:24:15.046Z,4.85
2023-03-04T20:26:41.814Z,4.70
2023-03-04T20:29:08.553Z,4.80
2023-03-04T20:31:39.210Z,5.07
2023-03-04T20:34:07.300Z,5.10
2023-03-04T20:36:34.695Z,4.55
2023-03-04T20:39:03.576Z,4.95
2023-03-04T20:41:34.668Z,4.55
2023-03-04T20:44:01.534Z,5.00
2023-03-04T20:46:42.990Z,5.32
2023-03-04T20:49:16.160Z,6.53
2023-03-04T20:51:43.428Z,5.32
2023-03-04T20:54:10.571Z,5.93
2023-03-04T20:56:37.881Z,5.25
2023-03-04T20:59:08.056Z,5.60
2023-03-04T21:01:36.531Z,5.20
2023-03-04T21:04:04.577Z,5.43
2023-03-04T21:06:32.498Z,6.07
2023-03-04T21:09:04.745Z,5.00
2023-03-04T21:11:31.644Z,5.50
2023-03-04T21:13:58.374Z,5.90
2023-03-04T21:16:29.577Z,5.72
2023-03-04T21:18:56.368Z,5.75
2023-03-04T21:21:25.787Z,5.03
2023-03-04T21:23:54.109Z,5.60
2023-03-04T21:26:22.350Z,5.65
2023-03-04T21:28:50.896Z,5.38
2023-03-04T21:31:30.992Z,6.15
2023-03-04T21:34:00.192Z,5.60
2023-03-04T21:36:26.934Z,5.22
2023-03-04T21:38:53.920Z,5.07
2023-03-04T21:41:23.181Z,5.03
2023-03-04T21:43:50.982Z,4.35
2023-03-04T21:46:19.118Z,4.55
2023-03-04T21:48:47.850Z,4.70
2023-03-04T21:51:16.360Z,4.80
2023-03-04T21:53:44.066Z,5.20
2023-03-04T21:56:12.260Z,4.63
2023-03-04T21:58:42.382Z,4.72
2023-03-04T22:01:18.618Z,4.97
2023-03-04T22:03:46.139Z,4.90
2023-03-04T22:06:13.320Z,5.07
2023-03-04T22:08:40.192Z,4.82
2023-03-04T22:11:09.573Z,4.25
2023-03-04T22:13:37.443Z,4.75
2023-03-04T22:16:05.705Z,5.10
2023-03-04T22:18:33.005Z,4.43
2023-03-04T22:21:10.269Z,4.63
2023-03-04T22:23:37.247Z,4.32
2023-03-04T22:26:06.856Z,4.20
2023-03-04T22:28:33.689Z,4.45
2023-03-04T22:31:02.010Z,4.18
2023-03-04T22:33:29.422Z,3.60
2023-03-04T22:35:56.188Z,4.38
2023-03-04T22:38:23.026Z,3.50
2023-03-04T22:40:50.138Z,4.65
2023-03-04T22:43:16.833Z,3.30
2023-03-04T22:45:43.680Z,4.00
2023-03-04T22:48:10.452Z,3.85
2023-03-04T22:50:37.212Z,3.55
2023-03-04T22:53:06.704Z,3.45
2023-03-04T22:55:34.216Z,3.72
2023-03-04T22:58:02.964Z,3.50
2023-03-04T23:00:31.184Z,3.53
2023-03-04T23:02:58.482Z,3.15
2023-03-04T23:05:25.547Z,2.75
2023-03-04T23:07:52.506Z,3.10
2023-03-04T23:10:22.639Z,2.95
2023-03-04T23:12:50.193Z,3.17
2023-03-04T23:15:17.903Z,3.70
2023-03-04T23:17:45.309Z,3.25
2023-03-04T23:20:15.927Z,2.90
2023-03-04T23:22:42.559Z,3.08
2023-03-04T23:25:09.673Z,3.05
2023-03-04T23:27:38.220Z,2.85
2023-03-04T23:30:12.629Z,3.33
2023-03-04T23:32:39.347Z,2.92
2023-03-04T23:35:06.429Z,2.90
2023-03-04T23:37:33.197Z,3.35
2023-03-04T23:39:59.978Z,2.50
2023-03-04T23:42:26.734Z,2.72
2023-03-04T23:44:53.528Z,2.38
2023-03-04T23:47:20.237Z,3.00
2023-03-04T23:49:47.096Z,3.10
2023-03-04T23:52:13.763Z,2.65
2023-03-04T23:54:40.483Z,2.75
2023-03-04T23:57:07.201Z,3.03
2023-03-04T23:59:33.843Z,2.78
